sensor_id;sensor_type;location;lat;lon;timestamp;temperature;humidity
9193;DHT22;4631;49.296;10.560;2023-07-13T00:01:52;21.30;99.90
9193;DHT22;4631;49.296;10.560;2023-07-13T00:04:19;21.30;99.90
9193;DHT22;4631;49.296;10.560;2023-07-13T00:06:46;21.30;99.90
9193;DHT22;4631;49.296;10.560;2023-07-13T00:09:13;21.30;99.90
9193;DHT22;4631;49.296;10.560;2023-07-13T00:11:40;21.20;99.90
9193;DHT22;4631;49.296;10.560;2023-07-13T00:14:07;21.20;99.90
9193;DHT22;4631;49.296;10.560;2023-07-13T00:16:34;21.20;99.90
9193;DHT22;4631;49.296;10.560;2023-07-13T00:19:02;21.10;99.90
9193;DHT22;4631;49.296;10.560;2023-07-13T00:21:29;21.10;99.90
9193;DHT22;4631;49.296;10.560;2023-07-13T00:23:55;21.10;99.90
9193;DHT22;4631;49.296;10.560;2023-07-13T00:26:22;21.10;99.90
9193;DHT22;4631;49.296;10.560;2023-07-13T00:28:49;21.10;99.90
9193;DHT22;4631;49.296;10.560;2023-07-13T00:31:16;21.00;99.90
9193;DHT22;4631;49.296;10.560;2023-07-13T00:33:43;21.00;99.90
9193;DHT22;4631;49.296;10.560;2023-07-13T00:36:11;20.90;99.90
9193;DHT22;4631;49.296;10.560;2023-07-13T00:38:38;20.90;99.90
9193;DHT22;4631;49.296;10.560;2023-07-13T00:41:05;20.80;99.90
9193;DHT22;4631;49.296;10.560;2023-07-13T00:43:31;20.80;99.90
9193;DHT22;4631;49.296;10.560;2023-07-13T00:48:42;20.70;99.90
9193;DHT22;4631;49.296;10.560;2023-07-13T00:51:11;20.60;99.90
9193;DHT22;4631;49.296;10.560;2023-07-13T00:53:38;20.60;99.90
9193;DHT22;4631;49.296;10.560;2023-07-13T00:56:05;20.50;99.90
9193;DHT22;4631;49.296;10.560;2023-07-13T00:58:32;20.50;99.90
9193;DHT22;4631;49.296;10.560;2023-07-13T01:00:58;20.50;99.90
9193;DHT22;4631;49.296;10.560;2023-07-13T01:03:25;20.40;99.90
9193;DHT22;4631;49.296;10.560;2023-07-13T01:05:52;20.40;99.90
9193;DHT22;4631;49.296;10.560;2023-07-13T01:08:20;20.20;99.90
9193;DHT22;4631;49.296;10.560;2023-07-13T01:10:51;20.10;99.90
9193;DHT22;4631;49.296;10.560;2023-07-13T01:13:17;20.00;99.90
9193;DHT22;4631;49.296;10.560;2023-07-13T01:15:45;20.00;99.90
9193;DHT22;4631;49.296;10.560;2023-07-13T01:18:13;20.00;99.90
9193;DHT22;4631;49.296;10.560;2023-07-13T01:20:41;19.90;99.90
9193;DHT22;4631;49.296;10.560;2023-07-13T01:23:09;19.90;99.90
9193;DHT22;4631;49.296;10.560;2023-07-13T01:25:38;19.80;99.90
9193;DHT22;4631;49.296;10.560;2023-07-13T01:28:05;19.80;99.90
9193;DHT22;4631;49.296;10.560;2023-07-13T01:30:34;19.80;99.90
9193;DHT22;4631;49.296;10.560;2023-07-13T01:33:00;19.70;99.90
9193;DHT22;4631;49.296;10.560;2023-07-13T01:35:29;19.60;99.90
9193;DHT22;4631;49.296;10.560;2023-07-13T01:37:56;19.60;99.90
9193;DHT22;4631;49.296;10.560;2023-07-13T01:40:24;19.60;99.90
9193;DHT22;4631;49.296;10.560;2023-07-13T01:42:50;19.50;99.90
9193;DHT22;4631;49.296;10.560;2023-07-13T01:45:17;19.50;99.90
9193;DHT22;4631;49.296;10.560;2023-07-13T01:47:44;19.50;99.90
9193;DHT22;4631;49.296;10.560;2023-07-13T01:50:10;19.50;99.90
9193;DHT22;4631;49.296;10.560;2023-07-13T01:52:37;19.40;99.90
9193;DHT22;4631;49.296;10.560;2023-07-13T01:55:04;19.40;99.90
9193;DHT22;4631;49.296;10.560;2023-07-13T01:57:32;19.30;99.90
9193;DHT22;4631;49.296;10.560;2023-07-13T02:00:02;19.40;99.90
9193;DHT22;4631;49.296;10.560;2023-07-13T02:02:30;19.30;99.90
9193;DHT22;4631;49.296;10.560;2023-07-13T02:04:56;19.30;99.90
9193;DHT22;4631;49.296;10.560;2023-07-13T02:07:23;19.20;99.90
9193;DHT22;4631;49.296;10.560;2023-07-13T02:09:49;19.20;99.90
9193;DHT22;4631;49.296;10.560;2023-07-13T02:12:15;19.10;99.90
9193;DHT22;4631;49.296;10.560;2023-07-13T02:14:43;19.00;99.90
9193;DHT22;4631;49.296;10.560;2023-07-13T02:17:10;19.00;99.90
9193;DHT22;4631;49.296;10.560;2023-07-13T02:19:36;18.90;99.90
9193;DHT22;4631;49.296;10.560;2023-07-13T02:22:03;18.90;99.90
9193;DHT22;4631;49.296;10.560;2023-07-13T02:24:30;18.80;99.90
9193;DHT22;4631;49.296;10.560;2023-07-13T02:26:56;18.70;99.90
9193;DHT22;4631;49.296;10.560;2023-07-13T02:29:23;18.70;99.90
9193;DHT22;4631;49.296;10.560;2023-07-13T02:31:51;18.70;99.90
9193;DHT22;4631;49.296;10.560;2023-07-13T02:34:18;18.60;99.90
9193;DHT22;4631;49.296;10.560;2023-07-13T02:36:44;18.60;99.90
9193;DHT22;4631;49.296;10.560;2023-07-13T02:39:11;18.60;99.90
9193;DHT22;4631;49.296;10.560;2023-07-13T02:41:38;18.50;99.90
9193;DHT22;4631;49.296;10.560;2023-07-13T02:44:06;18.40;99.90
9193;DHT22;4631;49.296;10.560;2023-07-13T02:46:34;18.40;99.90
9193;DHT22;4631;49.296;10.560;2023-07-13T02:49:02;18.30;99.90
9193;DHT22;4631;49.296;10.560;2023-07-13T02:51:29;18.20;99.90
9193;DHT22;4631;49.296;10.560;2023-07-13T02:53:58;18.20;99.90
9193;DHT22;4631;49.296;10.560;2023-07-13T02:56:26;18.10;99.90
9193;DHT22;4631;49.296;10.560;2023-07-13T02:58:53;18.10;99.90
9193;DHT22;4631;49.296;10.560;2023-07-13T03:01:20;18.10;99.90
9193;DHT22;4631;49.296;10.560;2023-07-13T03:03:47;18.10;99.90
9193;DHT22;4631;49.296;10.560;2023-07-13T03:06:15;18.00;99.90
9193;DHT22;4631;49.296;10.560;2023-07-13T03:08:44;18.00;99.90
9193;DHT22;4631;49.296;10.560;2023-07-13T03:11:13;17.90;99.90
9193;DHT22;4631;49.296;10.560;2023-07-13T03:13:40;17.90;99.90
9193;DHT22;4631;49.296;10.560;2023-07-13T03:16:07;17.80;99.90
9193;DHT22;4631;49.296;10.560;2023-07-13T03:18:34;17.80;99.90
9193;DHT22;4631;49.296;10.560;2023-07-13T03:21:01;17.80;99.90
9193;DHT22;4631;49.296;10.560;2023-07-13T03:23:29;17.70;99.90
9193;DHT22;4631;49.296;10.560;2023-07-13T03:26:03;17.70;99.90
9193;DHT22;4631;49.296;10.560;2023-07-13T03:28:30;17.60;99.90
9193;DHT22;4631;49.296;10.560;2023-07-13T03:31:01;17.60;99.90
9193;DHT22;4631;49.296;10.560;2023-07-13T03:33:27;17.60;99.90
9193;DHT22;4631;49.296;10.560;2023-07-13T03:35:54;17.60;99.90
9193;DHT22;4631;49.296;10.560;2023-07-13T03:38:21;17.60;99.90
9193;DHT22;4631;49.296;10.560;2023-07-13T03:40:49;17.50;99.90
9193;DHT22;4631;49.296;10.560;2023-07-13T03:43:15;17.50;99.90
9193;DHT22;4631;49.296;10.560;2023-07-13T03:45:42;17.50;99.90
9193;DHT22;4631;49.296;10.560;2023-07-13T03:48:09;17.40;99.90
9193;DHT22;4631;49.296;10.560;2023-07-13T03:50:35;17.40;99.90
9193;DHT22;4631;49.296;10.560;2023-07-13T03:53:02;17.40;99.90
9193;DHT22;4631;49.296;10.560;2023-07-13T03:55:28;17.40;99.90
9193;DHT22;4631;49.296;10.560;2023-07-13T03:57:59;17.30;99.90
9193;DHT22;4631;49.296;10.560;2023-07-13T04:00:26;17.40;99.90
9193;DHT22;4631;49.296;10.560;2023-07-13T04:02:52;17.40;99.90
9193;DHT22;4631;49.296;10.560;2023-07-13T04:05:19;17.40;99.90
9193;DHT22;4631;49.296;10.560;2023-07-13T04:07:45;17.30;99.90
9193;DHT22;4631;49.296;10.560;2023-07-13T04:10:12;17.30;99.90
9193;DHT22;4631;49.296;10.560;2023-07-13T04:12:39;17.30;99.90
9193;DHT22;4631;49.296;10.560;2023-07-13T04:15:07;17.20;99.90
9193;DHT22;4631;49.296;10.560;2023-07-13T04:17:34;17.20;99.90
9193;DHT22;4631;49.296;10.560;2023-07-13T04:20:01;17.20;99.90
9193;DHT22;4631;49.296;10.560;2023-07-13T04:22:27;17.10;99.90
9193;DHT22;4631;49.296;10.560;2023-07-13T04:24:54;17.10;99.90
9193;DHT22;4631;49.296;10.560;2023-07-13T04:27:20;17.00;99.90
9193;DHT22;4631;49.296;10.560;2023-07-13T04:29:47;17.00;99.90
9193;DHT22;4631;49.296;10.560;2023-07-13T04:32:15;17.00;99.90
9193;DHT22;4631;49.296;10.560;2023-07-13T04:34:42;17.10;99.90
9193;DHT22;4631;49.296;10.560;2023-07-13T04:37:08;17.10;99.90
9193;DHT22;4631;49.296;10.560;2023-07-13T04:39:35;17.10;99.90
9193;DHT22;4631;49.296;10.560;2023-07-13T04:42:03;17.10;99.90
9193;DHT22;4631;49.296;10.560;2023-07-13T04:44:29;17.20;99.90
9193;DHT22;4631;49.296;10.560;2023-07-13T04:46:56;17.20;99.90
9193;DHT22;4631;49.296;10.560;2023-07-13T04:49:24;17.30;99.90
9193;DHT22;4631;49.296;10.560;2023-07-13T04:51:50;17.30;99.90
9193;DHT22;4631;49.296;10.560;2023-07-13T04:54:17;17.40;99.90
9193;DHT22;4631;49.296;10.560;2023-07-13T04:56:44;17.40;99.90
9193;DHT22;4631;49.296;10.560;2023-07-13T04:59:10;17.40;99.90
9193;DHT22;4631;49.296;10.560;2023-07-13T05:01:37;17.40;99.90
9193;DHT22;4631;49.296;10.560;2023-07-13T05:04:04;17.50;99.90
9193;DHT22;4631;49.296;10.560;2023-07-13T05:06:32;17.50;99.90
9193;DHT22;4631;49.296;10.560;2023-07-13T05:08:58;17.60;99.90
9193;DHT22;4631;49.296;10.560;2023-07-13T05:11:25;17.70;99.90
9193;DHT22;4631;49.296;10.560;2023-07-13T05:13:52;17.80;99.90
9193;DHT22;4631;49.296;10.560;2023-07-13T05:16:18;17.90;99.90
9193;DHT22;4631;49.296;10.560;2023-07-13T05:18:46;18.00;99.90
9193;DHT22;4631;49.296;10.560;2023-07-13T05:21:22;18.20;99.90
9193;DHT22;4631;49.296;10.560;2023-07-13T05:23:50;18.30;99.90
9193;DHT22;4631;49.296;10.560;2023-07-13T05:26:16;18.50;99.90
9193;DHT22;4631;49.296;10.560;2023-07-13T05:28:43;18.50;99.90
9193;DHT22;4631;49.296;10.560;2023-07-13T05:31:10;18.60;99.90
9193;DHT22;4631;49.296;10.560;2023-07-13T05:33:36;18.60;99.90
9193;DHT22;4631;49.296;10.560;2023-07-13T05:36:03;18.60;99.90
9193;DHT22;4631;49.296;10.560;2023-07-13T05:38:30;18.60;99.90
9193;DHT22;4631;49.296;10.560;2023-07-13T05:40:58;18.60;99.90
9193;DHT22;4631;49.296;10.560;2023-07-13T05:43:25;18.60;99.90
9193;DHT22;4631;49.296;10.560;2023-07-13T05:45:52;18.60;99.90
9193;DHT22;4631;49.296;10.560;2023-07-13T05:48:19;18.60;99.90
9193;DHT22;4631;49.296;10.560;2023-07-13T05:50:45;18.60;99.90
9193;DHT22;4631;49.296;10.560;2023-07-13T05:53:12;18.60;99.90
9193;DHT22;4631;49.296;10.560;2023-07-13T05:55:40;18.60;99.90
9193;DHT22;4631;49.296;10.560;2023-07-13T05:58:08;18.70;99.90
9193;DHT22;4631;49.296;10.560;2023-07-13T06:00:35;18.70;99.90
9193;DHT22;4631;49.296;10.560;2023-07-13T06:03:02;18.80;99.90
9193;DHT22;4631;49.296;10.560;2023-07-13T06:05:28;19.00;99.90
9193;DHT22;4631;49.296;10.560;2023-07-13T06:07:55;19.10;99.90
9193;DHT22;4631;49.296;10.560;2023-07-13T06:10:22;19.20;99.90
9193;DHT22;4631;49.296;10.560;2023-07-13T06:12:48;19.20;99.90
9193;DHT22;4631;49.296;10.560;2023-07-13T06:15:16;19.30;99.90
9193;DHT22;4631;49.296;10.560;2023-07-13T06:17:43;19.30;99.90
9193;DHT22;4631;49.296;10.560;2023-07-13T06:20:10;19.30;99.90
9193;DHT22;4631;49.296;10.560;2023-07-13T06:22:37;19.30;99.90
9193;DHT22;4631;49.296;10.560;2023-07-13T06:25:04;19.20;99.90
9193;DHT22;4631;49.296;10.560;2023-07-13T06:27:30;19.10;99.90
9193;DHT22;4631;49.296;10.560;2023-07-13T06:29:57;19.10;99.90
9193;DHT22;4631;49.296;10.560;2023-07-13T06:32:25;19.10;99.90
9193;DHT22;4631;49.296;10.560;2023-07-13T06:34:51;19.20;99.90
9193;DHT22;4631;49.296;10.560;2023-07-13T06:37:18;19.20;99.90
9193;DHT22;4631;49.296;10.560;2023-07-13T06:39:45;19.20;99.90
9193;DHT22;4631;49.296;10.560;2023-07-13T06:42:11;19.20;99.90
9193;DHT22;4631;49.296;10.560;2023-07-13T06:44:38;19.30;99.90
9193;DHT22;4631;49.296;10.560;2023-07-13T06:47:05;19.40;99.90
9193;DHT22;4631;49.296;10.560;2023-07-13T06:49:33;19.40;99.90
9193;DHT22;4631;49.296;10.560;2023-07-13T06:51:59;19.40;99.90
9193;DHT22;4631;49.296;10.560;2023-07-13T06:54:26;19.30;99.90
9193;DHT22;4631;49.296;10.560;2023-07-13T06:56:53;19.40;99.90
9193;DHT22;4631;49.296;10.560;2023-07-13T06:59:19;19.50;99.90
9193;DHT22;4631;49.296;10.560;2023-07-13T07:01:46;19.50;99.90
9193;DHT22;4631;49.296;10.560;2023-07-13T07:04:12;19.60;99.90
9193;DHT22;4631;49.296;10.560;2023-07-13T07:06:40;19.60;99.90
9193;DHT22;4631;49.296;10.560;2023-07-13T07:09:07;19.60;99.90
9193;DHT22;4631;49.296;10.560;2023-07-13T07:11:34;19.60;99.90
9193;DHT22;4631;49.296;10.560;2023-07-13T07:14:01;19.60;99.90
9193;DHT22;4631;49.296;10.560;2023-07-13T07:16:27;19.60;99.90
9193;DHT22;4631;49.296;10.560;2023-07-13T07:18:54;19.60;99.90
9193;DHT22;4631;49.296;10.560;2023-07-13T07:21:20;19.60;99.90
9193;DHT22;4631;49.296;10.560;2023-07-13T07:23:49;19.60;99.90
9193;DHT22;4631;49.296;10.560;2023-07-13T07:26:16;19.60;99.90
9193;DHT22;4631;49.296;10.560;2023-07-13T07:28:49;19.70;99.90
9193;DHT22;4631;49.296;10.560;2023-07-13T07:31:15;19.70;99.90
9193;DHT22;4631;49.296;10.560;2023-07-13T07:33:42;19.80;99.90
9193;DHT22;4631;49.296;10.560;2023-07-13T07:36:08;19.90;99.90
9193;DHT22;4631;49.296;10.560;2023-07-13T07:38:35;19.90;99.90
9193;DHT22;4631;49.296;10.560;2023-07-13T07:41:04;20.10;99.90
9193;DHT22;4631;49.296;10.560;2023-07-13T07:43:31;20.10;99.90
9193;DHT22;4631;49.296;10.560;2023-07-13T07:45:57;20.30;99.90
9193;DHT22;4631;49.296;10.560;2023-07-13T07:48:24;20.30;99.90
9193;DHT22;4631;49.296;10.560;2023-07-13T07:50:51;20.40;99.90
9193;DHT22;4631;49.296;10.560;2023-07-13T07:53:17;20.40;99.90
9193;DHT22;4631;49.296;10.560;2023-07-13T07:55:44;20.40;99.90
9193;DHT22;4631;49.296;10.560;2023-07-13T07:58:12;20.50;99.90
9193;DHT22;4631;49.296;10.560;2023-07-13T08:00:39;20.50;99.90
9193;DHT22;4631;49.296;10.560;2023-07-13T08:03:05;20.50;99.90
9193;DHT22;4631;49.296;10.560;2023-07-13T08:05:34;20.50;99.90
9193;DHT22;4631;49.296;10.560;2023-07-13T08:08:01;20.60;99.90
9193;DHT22;4631;49.296;10.560;2023-07-13T08:10:27;20.60;99.90
9193;DHT22;4631;49.296;10.560;2023-07-13T08:12:54;20.60;99.90
9193;DHT22;4631;49.296;10.560;2023-07-13T08:15:22;20.70;99.90
9193;DHT22;4631;49.296;10.560;2023-07-13T08:17:52;20.80;99.90
9193;DHT22;4631;49.296;10.560;2023-07-13T08:20:18;20.80;99.90
9193;DHT22;4631;49.296;10.560;2023-07-13T08:22:45;20.80;99.90
9193;DHT22;4631;49.296;10.560;2023-07-13T08:25:12;20.80;99.90
9193;DHT22;4631;49.296;10.560;2023-07-13T08:27:38;20.90;99.90
9193;DHT22;4631;49.296;10.560;2023-07-13T08:30:05;21.00;99.90
9193;DHT22;4631;49.296;10.560;2023-07-13T08:32:35;21.10;99.90
9193;DHT22;4631;49.296;10.560;2023-07-13T08:35:02;21.10;99.90
9193;DHT22;4631;49.296;10.560;2023-07-13T08:37:29;21.10;99.90
9193;DHT22;4631;49.296;10.560;2023-07-13T08:39:56;21.10;99.90
9193;DHT22;4631;49.296;10.560;2023-07-13T08:42:27;21.20;99.90
9193;DHT22;4631;49.296;10.560;2023-07-13T08:44:56;21.20;99.90
9193;DHT22;4631;49.296;10.560;2023-07-13T08:47:24;21.30;99.90
9193;DHT22;4631;49.296;10.560;2023-07-13T08:49:52;21.40;99.90
9193;DHT22;4631;49.296;10.560;2023-07-13T08:52:25;21.50;99.90
9193;DHT22;4631;49.296;10.560;2023-07-13T08:54:55;21.50;99.90
9193;DHT22;4631;49.296;10.560;2023-07-13T08:57:24;21.60;99.90
9193;DHT22;4631;49.296;10.560;2023-07-13T08:59:53;21.60;99.90
9193;DHT22;4631;49.296;10.560;2023-07-13T09:02:23;21.60;99.90
9193;DHT22;4631;49.296;10.560;2023-07-13T09:04:54;21.60;99.90
9193;DHT22;4631;49.296;10.560;2023-07-13T09:07:25;21.60;99.90
9193;DHT22;4631;49.296;10.560;2023-07-13T09:09:56;21.70;99.90
9193;DHT22;4631;49.296;10.560;2023-07-13T09:12:27;21.70;99.90
9193;DHT22;4631;49.296;10.560;2023-07-13T09:14:57;21.80;99.90
9193;DHT22;4631;49.296;10.560;2023-07-13T09:20:03;21.90;99.90
9193;DHT22;4631;49.296;10.560;2023-07-13T09:22:30;21.90;99.90
9193;DHT22;4631;49.296;10.560;2023-07-13T09:25:00;21.90;99.90
9193;DHT22;4631;49.296;10.560;2023-07-13T09:27:29;22.00;99.90
9193;DHT22;4631;49.296;10.560;2023-07-13T09:29:58;22.10;99.90
9193;DHT22;4631;49.296;10.560;2023-07-13T09:32:27;22.20;99.90
9193;DHT22;4631;49.296;10.560;2023-07-13T09:34:54;22.20;99.90
9193;DHT22;4631;49.296;10.560;2023-07-13T09:37:28;22.20;99.90
9193;DHT22;4631;49.296;10.560;2023-07-13T09:39:55;22.30;99.90
9193;DHT22;4631;49.296;10.560;2023-07-13T09:42:22;22.30;99.90
9193;DHT22;4631;49.296;10.560;2023-07-13T09:44:53;22.40;99.90
9193;DHT22;4631;49.296;10.560;2023-07-13T09:47:21;22.40;99.90
9193;DHT22;4631;49.296;10.560;2023-07-13T09:49:53;22.40;99.90
9193;DHT22;4631;49.296;10.560;2023-07-13T09:52:22;22.50;99.90
9193;DHT22;4631;49.296;10.560;2023-07-13T09:54:49;22.60;99.90
9193;DHT22;4631;49.296;10.560;2023-07-13T09:57:17;22.70;99.90
9193;DHT22;4631;49.296;10.560;2023-07-13T09:59:45;22.80;99.90
9193;DHT22;4631;49.296;10.560;2023-07-13T10:04:59;23.00;99.90
9193;DHT22;4631;49.296;10.560;2023-07-13T10:07:27;23.20;99.90
9193;DHT22;4631;49.296;10.560;2023-07-13T10:09:54;23.40;99.90
9193;DHT22;4631;49.296;10.560;2023-07-13T10:12:21;23.50;99.90
9193;DHT22;4631;49.296;10.560;2023-07-13T10:14:49;23.50;99.10
9193;DHT22;4631;49.296;10.560;2023-07-13T10:17:17;23.40;98.70
9193;DHT22;4631;49.296;10.560;2023-07-13T10:19:46;23.20;98.90
9193;DHT22;4631;49.296;10.560;2023-07-13T10:22:14;23.20;99.10
9193;DHT22;4631;49.296;10.560;2023-07-13T10:24:44;23.30;98.90
9193;DHT22;4631;49.296;10.560;2023-07-13T10:27:15;23.50;99.30
9193;DHT22;4631;49.296;10.560;2023-07-13T10:29:45;23.60;99.20
9193;DHT22;4631;49.296;10.560;2023-07-13T10:32:12;23.60;99.60
9193;DHT22;4631;49.296;10.560;2023-07-13T10:34:40;23.80;98.90
9193;DHT22;4631;49.296;10.560;2023-07-13T10:37:09;23.90;98.90
9193;DHT22;4631;49.296;10.560;2023-07-13T10:39:43;24.00;99.10
9193;DHT22;4631;49.296;10.560;2023-07-13T10:42:11;24.10;98.60
9193;DHT22;4631;49.296;10.560;2023-07-13T10:44:39;24.30;99.00
9193;DHT22;4631;49.296;10.560;2023-07-13T10:47:08;24.40;98.70
9193;DHT22;4631;49.296;10.560;2023-07-13T10:49:38;24.30;97.40
9193;DHT22;4631;49.296;10.560;2023-07-13T10:52:20;24.20;97.90
9193;DHT22;4631;49.296;10.560;2023-07-13T10:55:04;24.20;98.20
9193;DHT22;4631;49.296;10.560;2023-07-13T10:57:41;24.40;98.20
9193;DHT22;4631;49.296;10.560;2023-07-13T11:00:13;24.40;97.70
9193;DHT22;4631;49.296;10.560;2023-07-13T11:02:40;24.30;97.40
9193;DHT22;4631;49.296;10.560;2023-07-13T11:05:14;24.10;96.90
9193;DHT22;4631;49.296;10.560;2023-07-13T11:07:51;24.00;97.00
9193;DHT22;4631;49.296;10.560;2023-07-13T11:13:02;24.10;96.70
9193;DHT22;4631;49.296;10.560;2023-07-13T11:15:31;24.20;96.30
9193;DHT22;4631;49.296;10.560;2023-07-13T11:18:02;24.20;96.00
9193;DHT22;4631;49.296;10.560;2023-07-13T11:20:33;24.30;96.60
9193;DHT22;4631;49.296;10.560;2023-07-13T11:23:08;24.20;94.90
9193;DHT22;4631;49.296;10.560;2023-07-13T11:25:36;24.30;95.10
9193;DHT22;4631;49.296;10.560;2023-07-13T11:28:06;24.50;94.70
9193;DHT22;4631;49.296;10.560;2023-07-13T11:30:35;24.50;95.60
9193;DHT22;4631;49.296;10.560;2023-07-13T11:33:03;24.70;94.70
9193;DHT22;4631;49.296;10.560;2023-07-13T11:35:34;24.80;94.60
9193;DHT22;4631;49.296;10.560;2023-07-13T11:38:01;25.00;94.60
9193;DHT22;4631;49.296;10.560;2023-07-13T11:40:28;25.20;95.10
9193;DHT22;4631;49.296;10.560;2023-07-13T11:42:58;25.20;94.90
9193;DHT22;4631;49.296;10.560;2023-07-13T11:45:26;25.30;94.50
9193;DHT22;4631;49.296;10.560;2023-07-13T11:47:53;25.40;94.90
9193;DHT22;4631;49.296;10.560;2023-07-13T11:50:20;25.50;94.40
9193;DHT22;4631;49.296;10.560;2023-07-13T11:52:49;25.60;93.80
9193;DHT22;4631;49.296;10.560;2023-07-13T11:55:20;25.70;93.40
9193;DHT22;4631;49.296;10.560;2023-07-13T11:57:49;25.70;94.00
9193;DHT22;4631;49.296;10.560;2023-07-13T12:00:17;25.80;94.10
9193;DHT22;4631;49.296;10.560;2023-07-13T12:02:48;25.70;93.70
9193;DHT22;4631;49.296;10.560;2023-07-13T12:05:16;25.60;93.30
9193;DHT22;4631;49.296;10.560;2023-07-13T12:07:44;25.60;94.70
9193;DHT22;4631;49.296;10.560;2023-07-13T12:10:16;25.50;94.30
9193;DHT22;4631;49.296;10.560;2023-07-13T12:12:46;25.50;94.30
9193;DHT22;4631;49.296;10.560;2023-07-13T12:15:18;25.30;94.20
9193;DHT22;4631;49.296;10.560;2023-07-13T12:17:49;25.30;94.30
9193;DHT22;4631;49.296;10.560;2023-07-13T12:20:20;25.30;93.60
9193;DHT22;4631;49.296;10.560;2023-07-13T12:22:47;25.30;94.40
9193;DHT22;4631;49.296;10.560;2023-07-13T12:25:15;25.40;94.10
9193;DHT22;4631;49.296;10.560;2023-07-13T12:27:42;25.30;93.50
9193;DHT22;4631;49.296;10.560;2023-07-13T12:30:22;25.30;93.90
9193;DHT22;4631;49.296;10.560;2023-07-13T12:32:59;25.40;94.40
9193;DHT22;4631;49.296;10.560;2023-07-13T12:35:27;25.60;94.20
9193;DHT22;4631;49.296;10.560;2023-07-13T12:37:56;25.60;93.80
9193;DHT22;4631;49.296;10.560;2023-07-13T12:40:31;25.40;93.80
9193;DHT22;4631;49.296;10.560;2023-07-13T12:42:59;25.40;94.50
9193;DHT22;4631;49.296;10.560;2023-07-13T12:45:27;25.50;94.90
9193;DHT22;4631;49.296;10.560;2023-07-13T12:47:55;25.60;94.30
9193;DHT22;4631;49.296;10.560;2023-07-13T12:50:23;25.90;94.80
9193;DHT22;4631;49.296;10.560;2023-07-13T12:52:50;26.10;93.70
9193;DHT22;4631;49.296;10.560;2023-07-13T12:55:19;26.30;93.90
9193;DHT22;4631;49.296;10.560;2023-07-13T12:57:49;26.50;93.30
9193;DHT22;4631;49.296;10.560;2023-07-13T13:00:23;26.80;92.60
9193;DHT22;4631;49.296;10.560;2023-07-13T13:02:51;27.00;91.60
9193;DHT22;4631;49.296;10.560;2023-07-13T13:05:18;27.10;91.80
9193;DHT22;4631;49.296;10.560;2023-07-13T13:07:50;27.10;91.60
9193;DHT22;4631;49.296;10.560;2023-07-13T13:10:17;27.30;91.60
9193;DHT22;4631;49.296;10.560;2023-07-13T13:12:43;27.50;90.70
9193;DHT22;4631;49.296;10.560;2023-07-13T13:15:10;27.60;90.40
9193;DHT22;4631;49.296;10.560;2023-07-13T13:17:38;27.70;89.00
9193;DHT22;4631;49.296;10.560;2023-07-13T13:20:11;27.70;88.50
9193;DHT22;4631;49.296;10.560;2023-07-13T13:22:40;27.30;87.50
9193;DHT22;4631;49.296;10.560;2023-07-13T13:25:09;27.10;89.70
9193;DHT22;4631;49.296;10.560;2023-07-13T13:27:36;26.90;90.60
9193;DHT22;4631;49.296;10.560;2023-07-13T13:30:03;27.00;90.00
9193;DHT22;4631;49.296;10.560;2023-07-13T13:32:30;27.20;89.00
9193;DHT22;4631;49.296;10.560;2023-07-13T13:34:57;27.10;88.80
9193;DHT22;4631;49.296;10.560;2023-07-13T13:37:24;27.00;89.40
9193;DHT22;4631;49.296;10.560;2023-07-13T13:39:51;26.80;89.70
9193;DHT22;4631;49.296;10.560;2023-07-13T13:42:20;26.50;88.10
9193;DHT22;4631;49.296;10.560;2023-07-13T13:44:51;26.50;90.00
9193;DHT22;4631;49.296;10.560;2023-07-13T13:47:21;26.50;89.80
9193;DHT22;4631;49.296;10.560;2023-07-13T13:49:50;26.80;89.60
9193;DHT22;4631;49.296;10.560;2023-07-13T13:52:17;27.20;86.20
9193;DHT22;4631;49.296;10.560;2023-07-13T13:54:43;27.40;87.80
9193;DHT22;4631;49.296;10.560;2023-07-13T13:57:12;27.80;87.20
9193;DHT22;4631;49.296;10.560;2023-07-13T13:59:40;28.10;87.20
9193;DHT22;4631;49.296;10.560;2023-07-13T14:02:11;28.20;85.40
9193;DHT22;4631;49.296;10.560;2023-07-13T14:04:55;28.20;81.30
9193;DHT22;4631;49.296;10.560;2023-07-13T14:07:22;28.00;82.20
9193;DHT22;4631;49.296;10.560;2023-07-13T14:09:49;28.10;83.30
9193;DHT22;4631;49.296;10.560;2023-07-13T14:12:16;28.20;79.30
9193;DHT22;4631;49.296;10.560;2023-07-13T14:14:44;28.20;78.80
9193;DHT22;4631;49.296;10.560;2023-07-13T14:17:16;28.10;80.10
9193;DHT22;4631;49.296;10.560;2023-07-13T14:19:47;27.90;77.60
9193;DHT22;4631;49.296;10.560;2023-07-13T14:22:16;27.80;79.40
9193;DHT22;4631;49.296;10.560;2023-07-13T14:24:42;27.90;80.40
9193;DHT22;4631;49.296;10.560;2023-07-13T14:27:09;27.70;79.80
9193;DHT22;4631;49.296;10.560;2023-07-13T14:29:37;27.70;79.50
9193;DHT22;4631;49.296;10.560;2023-07-13T14:32:07;27.90;80.40
9193;DHT22;4631;49.296;10.560;2023-07-13T14:34:34;28.10;81.60
9193;DHT22;4631;49.296;10.560;2023-07-13T14:37:01;28.30;80.90
9193;DHT22;4631;49.296;10.560;2023-07-13T14:39:29;28.40;80.10
9193;DHT22;4631;49.296;10.560;2023-07-13T14:41:56;28.30;80.20
9193;DHT22;4631;49.296;10.560;2023-07-13T14:44:24;28.00;79.30
9193;DHT22;4631;49.296;10.560;2023-07-13T14:46:51;27.90;80.00
9193;DHT22;4631;49.296;10.560;2023-07-13T14:49:21;27.70;78.80
9193;DHT22;4631;49.296;10.560;2023-07-13T14:51:50;27.70;79.90
9193;DHT22;4631;49.296;10.560;2023-07-13T14:54:16;27.80;79.50
9193;DHT22;4631;49.296;10.560;2023-07-13T14:56:43;28.00;79.40
9193;DHT22;4631;49.296;10.560;2023-07-13T14:59:10;28.10;76.70
9193;DHT22;4631;49.296;10.560;2023-07-13T15:01:38;28.10;76.50
9193;DHT22;4631;49.296;10.560;2023-07-13T15:04:05;28.00;76.50
9193;DHT22;4631;49.296;10.560;2023-07-13T15:06:39;27.90;76.40
9193;DHT22;4631;49.296;10.560;2023-07-13T15:09:18;27.40;77.10
9193;DHT22;4631;49.296;10.560;2023-07-13T15:11:45;27.10;78.30
9193;DHT22;4631;49.296;10.560;2023-07-13T15:14:11;27.10;79.60
9193;DHT22;4631;49.296;10.560;2023-07-13T15:16:38;27.30;79.20
9193;DHT22;4631;49.296;10.560;2023-07-13T15:19:04;27.40;79.30
9193;DHT22;4631;49.296;10.560;2023-07-13T15:21:31;27.50;79.50
9193;DHT22;4631;49.296;10.560;2023-07-13T15:24:01;27.70;80.50
9193;DHT22;4631;49.296;10.560;2023-07-13T15:26:28;28.00;80.20
9193;DHT22;4631;49.296;10.560;2023-07-13T15:28:55;28.10;80.60
9193;DHT22;4631;49.296;10.560;2023-07-13T15:31:23;28.10;80.50
9193;DHT22;4631;49.296;10.560;2023-07-13T15:33:50;28.00;80.80
9193;DHT22;4631;49.296;10.560;2023-07-13T15:36:17;28.00;80.20
9193;DHT22;4631;49.296;10.560;2023-07-13T15:38:44;27.60;79.10
9193;DHT22;4631;49.296;10.560;2023-07-13T15:41:20;27.20;81.80
9193;DHT22;4631;49.296;10.560;2023-07-13T15:43:48;27.10;81.10
9193;DHT22;4631;49.296;10.560;2023-07-13T15:46:15;26.90;83.10
9193;DHT22;4631;49.296;10.560;2023-07-13T15:48:42;26.90;82.90
9193;DHT22;4631;49.296;10.560;2023-07-13T15:51:10;26.90;82.30
9193;DHT22;4631;49.296;10.560;2023-07-13T15:53:38;26.60;82.10
9193;DHT22;4631;49.296;10.560;2023-07-13T15:56:11;26.70;81.70
9193;DHT22;4631;49.296;10.560;2023-07-13T15:58:44;26.80;83.20
9193;DHT22;4631;49.296;10.560;2023-07-13T16:01:11;26.90;84.70